createdAt,value
2019-05-13T00:02:06.194Z,102164.58
2019-05-13T00:04:33.997Z,102160.48
2019-05-13T00:07:00.999Z,102157.89
2019-05-13T00:09:30.165Z,102165.83
2019-05-13T00:11:57.251Z,102164.06
2019-05-13T00:14:24.328Z,102167.47
2019-05-13T00:16:53.494Z,102167.73
2019-05-13T00:19:20.583Z,102170.34
2019-05-13T00:21:47.637Z,102173.51
2019-05-13T00:24:15.135Z,102167.28
2019-05-13T00:26:44.462Z,102164.03
2019-05-13T00:29:14.277Z,102163.98
2019-05-13T00:31:43.915Z,102163.56
2019-05-13T00:34:14.171Z,102160.55
2019-05-13T00:36:40.494Z,102164.09
2019-05-13T00:39:08.040Z,102164.12
2019-05-13T00:41:35.247Z,102166.77
2019-05-13T00:44:03.840Z,102170.23
2019-05-13T00:46:34.023Z,102181.39
2019-05-13T00:49:01.548Z,102168.60
2019-05-13T00:51:28.603Z,102177.06
2019-05-13T00:53:55.599Z,102180.95
2019-05-13T00:56:23.790Z,102175.47
2019-05-13T00:58:51.344Z,102174.23
2019-05-13T01:01:18.706Z,102169.92
2019-05-13T01:03:45.841Z,102166.08
2019-05-13T01:06:13.370Z,102179.33
2019-05-13T01:08:40.716Z,102172.03
2019-05-13T01:11:07.744Z,102178.38
2019-05-13T01:13:34.900Z,102172.44
2019-05-13T01:16:03.746Z,102178.81
2019-05-13T01:18:33.978Z,102181.84
2019-05-13T01:21:01.606Z,102176.23
2019-05-13T01:23:28.617Z,102183.56
2019-05-13T01:25:57.456Z,102178.02
2019-05-13T01:28:24.501Z,102180.50
2019-05-13T01:30:53.800Z,102172.34
2019-05-13T01:33:20.474Z,102177.86
2019-05-13T01:35:47.529Z,102174.12
2019-05-13T01:38:14.636Z,102176.36
2019-05-13T01:40:44.250Z,102177.95
2019-05-13T01:43:14.493Z,102175.38
2019-05-13T01:45:41.016Z,102183.91
2019-05-13T01:48:08.326Z,102185.13
2019-05-13T01:50:35.546Z,102178.19
2019-05-13T01:53:04.306Z,102177.73
2019-05-13T01:55:33.979Z,102174.23
2019-05-13T01:58:00.484Z,102175.08
2019-05-13T02:00:27.535Z,102177.23
2019-05-13T02:02:54.824Z,102175.05
2019-05-13T02:05:24.096Z,102171.25
2019-05-13T02:07:57.640Z,102173.37
2019-05-13T02:10:39.557Z,102166.03
2019-05-13T02:13:06.582Z,102177.95
2019-05-13T02:15:33.825Z,102178.38
2019-05-13T02:18:03.989Z,102178.41
2019-05-13T02:20:33.404Z,102180.53
2019-05-13T02:23:00.137Z,102181.84
2019-05-13T02:25:27.190Z,102187.40
2019-05-13T02:27:54.465Z,102183.57
2019-05-13T02:30:21.510Z,102195.56
2019-05-13T02:32:48.918Z,102199.06
2019-05-13T02:35:15.944Z,102193.88
2019-05-13T02:37:43.811Z,102196.95
2019-05-13T02:40:13.604Z,102188.44
2019-05-13T02:42:43.606Z,102194.80
2019-05-13T02:45:12.361Z,102192.23
2019-05-13T02:47:38.879Z,102187.97
2019-05-13T02:50:06.445Z,102197.41
2019-05-13T02:52:33.906Z,102192.69
2019-05-13T02:55:04.047Z,102198.34
2019-05-13T02:57:32.746Z,102196.19
2019-05-13T02:59:58.858Z,102196.59
2019-05-13T03:02:27.160Z,102189.69
2019-05-13T03:04:54.220Z,102190.94
2019-05-13T03:07:23.298Z,102191.87
2019-05-13T03:09:52.705Z,102200.02
2019-05-13T03:12:19.151Z,102198.80
2019-05-13T03:14:48.561Z,102212.54
2019-05-13T03:17:26.571Z,102215.55
2019-05-13T03:19:53.648Z,102209.59
2019-05-13T03:22:22.383Z,102203.19
2019-05-13T03:24:52.368Z,102204.91
2019-05-13T03:27:20.566Z,102212.63
2019-05-13T03:29:47.501Z,102200.67
2019-05-13T03:32:16.797Z,102201.53
2019-05-13T03:34:45.602Z,102207.97
2019-05-13T03:37:15.988Z,102209.28
2019-05-13T03:39:43.997Z,102208.48
2019-05-13T03:42:12.725Z,102207.97
2019-05-13T03:44:42.862Z,102207.56
2019-05-13T03:47:12.637Z,102220.44
2019-05-13T03:49:42.545Z,102224.71
2019-05-13T03:52:13.246Z,102211.41
2019-05-13T03:54:39.079Z,102222.98
2019-05-13T03:57:06.158Z,102232.03
2019-05-13T03:59:33.734Z,102237.61
2019-05-13T04:02:03.143Z,102237.61
2019-05-13T04:04:32.409Z,102239.41
2019-05-13T04:07:02.723Z,102248.80
2019-05-13T04:09:32.506Z,102252.27
2019-05-13T04:12:02.814Z,102249.44
2019-05-13T04:14:28.359Z,102259.34
2019-05-13T04:17:02.923Z,102257.97
2019-05-13T04:19:34.294Z,102268.30
2019-05-13T04:22:02.399Z,102263.23
2019-05-13T04:24:33.300Z,102263.30
2019-05-13T04:27:03.026Z,102259.72
2019-05-13T04:29:33.005Z,102262.22
2019-05-13T04:32:02.266Z,102266.33
2019-05-13T04:34:33.287Z,102268.42
2019-05-13T04:36:58.939Z,102264.80
2019-05-13T04:39:40.110Z,102272.12
2019-05-13T04:41:54.947Z,102275.84
2019-05-13T04:44:24.030Z,102272.00
2019-05-13T04:46:52.310Z,102272.87
2019-05-13T04:49:22.980Z,102277.20
2019-05-13T04:51:52.119Z,102273.38
2019-05-13T04:54:22.309Z,102279.79
2019-05-13T04:56:52.593Z,102287.87
2019-05-13T04:59:22.443Z,102285.02
2019-05-13T05:02:13.537Z,102291.05
2019-05-13T05:05:03.242Z,102285.42
2019-05-13T05:07:52.502Z,102294.67
2019-05-13T05:11:05.526Z,102300.52
2019-05-13T05:14:16.268Z,102304.83
2019-05-13T05:17:22.480Z,102297.23
2019-05-13T05:20:14.538Z,102302.39
2019-05-13T05:23:38.994Z,102299.44
2019-05-13T05:26:56.999Z,102310.42
2019-05-13T05:29:35.846Z,102310.83
2019-05-13T05:32:51.951Z,102307.68
2019-05-13T05:36:07.541Z,102310.42
2019-05-13T05:39:42.891Z,102312.39
2019-05-13T05:42:32.191Z,102320.64
2019-05-13T05:45:05.658Z,102316.08
2019-05-13T05:47:35.242Z,102317.30
2019-05-13T05:50:03.323Z,102323.66
2019-05-13T05:52:34.401Z,102318.78
2019-05-13T05:55:02.901Z,102317.52
2019-05-13T05:57:31.399Z,102314.59
2019-05-13T06:00:02.313Z,102315.83
2019-05-13T06:02:32.192Z,102320.26
2019-05-13T06:05:02.458Z,102315.63
2019-05-13T06:07:32.329Z,102316.43
2019-05-13T06:10:02.021Z,102323.78
2019-05-13T06:12:31.513Z,102319.86
2019-05-13T06:14:58.918Z,102319.45
2019-05-13T06:17:26.019Z,102315.78
2019-05-13T06:19:53.224Z,102317.02
2019-05-13T06:22:21.655Z,102310.84
2019-05-13T06:24:52.161Z,102307.84
2019-05-13T06:27:21.306Z,102314.53
2019-05-13T06:29:50.245Z,102304.09
2019-05-13T06:32:23.581Z,102300.75
2019-05-13T06:34:47.048Z,102299.19
2019-05-13T06:37:14.089Z,102304.91
2019-05-13T06:39:44.782Z,102306.67
2019-05-13T06:42:11.857Z,102309.69
2019-05-13T06:44:38.877Z,102311.95
2019-05-13T06:47:07.049Z,102317.03
2019-05-13T06:49:35.712Z,102316.99
2019-05-13T06:52:02.780Z,102317.95
2019-05-13T06:54:32.554Z,102324.16
2019-05-13T06:57:04.290Z,102322.13
2019-05-13T06:59:31.624Z,102324.45
2019-05-13T07:01:59.082Z,102312.92
2019-05-13T07:04:32.596Z,102327.81
2019-05-13T07:07:09.879Z,102320.84
2019-05-13T07:09:32.270Z,102320.05
2019-05-13T07:11:59.003Z,102310.97
2019-05-13T07:14:28.121Z,102315.38
2019-05-13T07:16:55.161Z,102309.62
2019-05-13T07:19:23.918Z,102321.47
2019-05-13T07:21:53.610Z,102315.13
2019-05-13T07:24:21.497Z,102321.16
2019-05-13T07:26:48.844Z,102312.45
2019-05-13T07:29:17.523Z,102304.84
2019-05-13T07:31:45.165Z,102306.22
2019-05-13T07:34:12.211Z,102305.61
2019-05-13T07:36:42.165Z,102301.20
2019-05-13T07:39:11.683Z,102305.52
2019-05-13T07:41:39.610Z,102303.50
2019-05-13T07:44:07.030Z,102305.85
2019-05-13T07:46:34.113Z,102308.37
2019-05-13T07:49:02.280Z,102310.50
2019-05-13T07:51:31.559Z,102311.80
2019-05-13T07:54:02.067Z,102305.93
2019-05-13T07:56:28.730Z,102310.23
2019-05-13T07:58:55.822Z,102309.56
2019-05-13T08:01:22.918Z,102303.58
2019-05-13T08:03:51.617Z,102309.09
2019-05-13T08:06:22.180Z,102308.77
2019-05-13T08:08:49.353Z,102306.92
2019-05-13T08:11:16.483Z,102316.64
2019-05-13T08:13:44.570Z,102312.02
2019-05-13T08:16:12.364Z,102302.98
2019-05-13T08:18:43.638Z,102315.46
2019-05-13T08:21:08.399Z,102301.48
2019-05-13T08:23:37.295Z,102309.80
2019-05-13T08:26:04.343Z,102307.05
2019-05-13T08:28:32.352Z,102310.33
2019-05-13T08:31:02.099Z,102300.36
2019-05-13T08:33:28.776Z,102302.00
2019-05-13T08:35:58.670Z,102305.14
2019-05-13T08:38:27.043Z,102305.02
2019-05-13T08:40:55.261Z,102300.04
2019-05-13T08:43:22.650Z,102305.11
2019-05-13T08:45:51.687Z,102294.92
2019-05-13T08:48:18.908Z,102303.66
2019-05-13T08:50:46.174Z,102298.09
2019-05-13T08:53:13.258Z,102290.25
2019-05-13T08:55:42.590Z,102292.03
2019-05-13T08:58:09.449Z,102289.39
2019-05-13T09:00:47.589Z,102288.65
2019-05-13T09:03:14.948Z,102282.72
2019-05-13T09:05:42.127Z,102278.51
2019-05-13T09:08:11.502Z,102286.82
2019-05-13T09:10:41.216Z,102272.41
2019-05-13T09:13:07.791Z,102276.66
2019-05-13T09:15:42.081Z,102267.17
2019-05-13T09:18:11.509Z,102278.79
2019-05-13T09:20:38.611Z,102274.32
2019-05-13T09:23:06.229Z,102269.19
2019-05-13T09:25:34.409Z,102259.38
2019-05-13T09:28:02.663Z,102263.89
2019-05-13T09:30:31.754Z,102268.88
2019-05-13T09:32:58.923Z,102257.73
2019-05-13T09:35:27.688Z,102261.33
2019-05-13T09:37:56.895Z,102260.77
2019-05-13T09:40:24.011Z,102263.58
2019-05-13T09:42:54.918Z,102261.31
2019-05-13T09:45:21.549Z,102263.45
2019-05-13T09:47:49.023Z,102261.83
2019-05-13T09:50:28.499Z,102247.36
2019-05-13T09:52:45.314Z,102250.95
2019-05-13T09:55:25.506Z,102250.59
2019-05-13T09:57:43.208Z,102245.10
2019-05-13T10:00:12.208Z,102241.55
2019-05-13T10:02:39.543Z,102242.53
2019-05-13T10:05:06.863Z,102235.84
2019-05-13T10:07:35.210Z,102239.05
2019-05-13T10:10:04.820Z,102237.83
2019-05-13T10:12:32.217Z,102238.77
2019-05-13T10:15:02.068Z,102229.04
2019-05-13T10:17:31.668Z,102235.34
2019-05-13T10:19:58.275Z,102227.05
2019-05-13T10:22:25.296Z,102228.86
2019-05-13T10:24:52.567Z,102228.27
2019-05-13T10:27:22.369Z,102237.56
2019-05-13T10:29:51.820Z,102231.45
2019-05-13T10:32:21.916Z,102224.37
2019-05-13T10:34:52.020Z,102231.73
2019-05-13T10:37:22.002Z,102216.05
2019-05-13T10:39:51.818Z,102225.70
2019-05-13T10:42:19.163Z,102222.16
2019-05-13T10:44:46.337Z,102217.22
2019-05-13T10:47:13.826Z,102218.48
2019-05-13T10:49:42.505Z,102217.41
2019-05-13T10:52:12.260Z,102210.00
2019-05-13T10:54:41.098Z,102206.45
2019-05-13T10:57:08.146Z,102208.78
2019-05-13T10:59:35.261Z,102210.00
2019-05-13T11:02:02.674Z,102190.25
2019-05-13T11:04:32.009Z,102196.66
2019-05-13T11:06:58.774Z,102187.21
2019-05-13T11:09:26.594Z,102196.08
2019-05-13T11:11:55.505Z,102190.73
2019-05-13T11:14:22.629Z,102190.36
2019-05-13T11:16:52.307Z,102189.44
2019-05-13T11:19:19.265Z,102195.53
2019-05-13T11:21:50.638Z,102179.42
2019-05-13T11:24:16.370Z,102188.89
2019-05-13T11:26:43.860Z,102182.05
2019-05-13T11:29:12.145Z,102186.89
2019-05-13T11:31:42.467Z,102167.88
2019-05-13T11:34:08.588Z,102164.42
2019-05-13T11:36:35.600Z,102160.67
2019-05-13T11:39:05.412Z,102156.97
2019-05-13T11:41:32.782Z,102154.02
2019-05-13T11:44:12.954Z,102154.77
2019-05-13T11:46:33.289Z,102148.44
2019-05-13T11:49:02.262Z,102154.03
2019-05-13T11:51:28.806Z,102152.02
2019-05-13T11:53:57.196Z,102142.20
2019-05-13T11:56:24.416Z,102145.87
2019-05-13T11:58:53.322Z,102134.33
2019-05-13T12:01:23.168Z,102130.95
2019-05-13T12:03:53.172Z,102133.97
2019-05-13T12:06:22.835Z,102131.46
2019-05-13T12:08:52.178Z,102117.30
2019-05-13T12:11:22.805Z,102118.72
2019-05-13T12:13:53.311Z,102109.42
2019-05-13T12:16:22.715Z,102125.02
2019-05-13T12:18:52.538Z,102126.38
2019-05-13T12:21:20.512Z,102123.45
2019-05-13T12:23:48.726Z,102116.45
2019-05-13T12:26:15.808Z,102112.58
2019-05-13T12:28:42.961Z,102103.27
2019-05-13T12:31:12.172Z,102105.27
2019-05-13T12:33:38.939Z,102100.41
2019-05-13T12:36:06.018Z,102092.72
2019-05-13T12:38:33.611Z,102099.59
2019-05-13T12:41:04.999Z,102096.11
2019-05-13T12:43:31.991Z,102093.14
2019-05-13T12:46:02.077Z,102092.90
2019-05-13T12:48:27.934Z,102087.07
2019-05-13T12:50:55.355Z,102064.72
2019-05-13T12:53:23.601Z,102079.42
2019-05-13T12:55:53.833Z,102068.78
2019-05-13T12:58:23.360Z,102083.05
2019-05-13T13:00:49.101Z,102085.22
2019-05-13T13:03:16.129Z,102084.00
2019-05-13T13:05:43.492Z,102075.18
2019-05-13T13:08:20.955Z,102078.92
2019-05-13T13:10:42.480Z,102091.37
2019-05-13T13:13:10.212Z,102081.72
2019-05-13T13:15:42.251Z,102069.27
2019-05-13T13:18:07.065Z,102070.73
2019-05-13T13:20:41.614Z,102067.03
2019-05-13T13:23:04.658Z,102066.00
2019-05-13T13:25:33.891Z,102078.88
2019-05-13T13:28:10.570Z,102046.55
2019-05-13T13:30:35.029Z,102056.88
2019-05-13T13:33:02.071Z,102066.36
2019-05-13T13:35:28.260Z,102049.20
2019-05-13T13:37:55.423Z,102057.28
2019-05-13T13:40:28.390Z,102056.75
2019-05-13T13:42:52.883Z,102057.61
2019-05-13T13:45:22.758Z,102052.61
2019-05-13T13:48:02.249Z,102056.17
2019-05-13T13:51:25.918Z,102042.33
2019-05-13T13:53:56.409Z,102049.21
2019-05-13T13:56:27.891Z,102046.81
2019-05-13T13:58:55.612Z,102047.96
2019-05-13T14:01:27.411Z,102043.92
2019-05-13T14:03:54.103Z,102038.86
2019-05-13T14:09:01.424Z,102034.56
2019-05-13T14:11:28.413Z,102031.92
2019-05-13T14:13:58.257Z,102030.88
2019-05-13T14:20:36.772Z,102024.62
2019-05-13T14:23:12.644Z,102023.98
2019-05-13T14:25:44.397Z,102012.34
2019-05-13T14:28:17.276Z,102011.45
2019-05-13T14:33:42.632Z,102010.39
2019-05-13T14:36:13.949Z,102000.17
2019-05-13T14:38:44.239Z,101992.06
2019-05-13T14:41:15.733Z,102002.13
2019-05-13T14:43:44.377Z,101998.03
2019-05-13T14:46:13.240Z,102007.99
2019-05-13T14:48:43.374Z,101994.85
2019-05-13T14:51:14.781Z,101998.17
2019-05-13T14:53:44.224Z,102001.77
2019-05-13T14:56:14.787Z,102007.65
2019-05-13T14:58:45.197Z,101996.20
2019-05-13T15:01:19.900Z,102010.75
2019-05-13T15:03:45.784Z,101999.94
2019-05-13T15:06:16.889Z,101998.06
2019-05-13T15:08:45.884Z,102001.03
2019-05-13T15:11:15.365Z,101997.64
2019-05-13T15:13:43.980Z,101989.02
2019-05-13T15:16:13.619Z,101992.84
2019-05-13T15:18:43.958Z,101993.41
2019-05-13T15:21:14.156Z,102004.40
2019-05-13T15:23:44.186Z,101999.99
2019-05-13T15:26:13.220Z,101991.52
2019-05-13T15:28:43.694Z,101979.66
2019-05-13T15:31:14.191Z,101992.84
2019-05-13T15:33:43.795Z,101980.16
2019-05-13T15:36:14.266Z,101979.11
2019-05-13T15:38:45.345Z,101985.41
2019-05-13T15:41:15.716Z,102002.09
2019-05-13T15:43:51.858Z,101983.37
2019-05-13T15:46:25.070Z,101977.19
2019-05-13T15:48:57.796Z,101972.07
2019-05-13T15:51:26.139Z,101984.47
2019-05-13T15:53:57.156Z,101984.56
2019-05-13T15:56:23.403Z,101984.66
2019-05-13T15:58:52.959Z,101973.17
2019-05-13T16:01:22.697Z,101972.02
2019-05-13T16:03:49.167Z,101976.78
2019-05-13T16:06:16.210Z,101966.61
2019-05-13T16:08:45.160Z,101973.89
2019-05-13T16:11:13.317Z,101964.69
2019-05-13T16:13:41.701Z,101962.64
2019-05-13T16:16:12.157Z,101962.64
2019-05-13T16:18:38.940Z,101961.68
2019-05-13T16:21:06.032Z,101967.19
2019-05-13T16:23:33.270Z,101962.45
2019-05-13T16:26:02.013Z,101957.76
2019-05-13T16:28:29.921Z,101950.60
2019-05-13T16:30:58.379Z,101963.22
2019-05-13T16:33:25.414Z,101956.10
2019-05-13T16:35:52.464Z,101956.95
2019-05-13T16:38:21.950Z,101959.13
2019-05-13T16:40:51.460Z,101950.83
2019-05-13T16:43:20.923Z,101949.85
2019-05-13T16:45:48.945Z,101955.30
2019-05-13T16:48:16.125Z,101948.09
2019-05-13T16:50:45.789Z,101944.98
2019-05-13T16:53:15.046Z,101958.16
2019-05-13T16:55:43.939Z,101952.25
2019-05-13T16:58:12.524Z,101956.53
2019-05-13T17:00:42.287Z,101955.55
2019-05-13T17:03:11.328Z,101958.60
2019-05-13T17:05:39.283Z,101959.80
2019-05-13T17:08:06.469Z,101953.94
2019-05-13T17:10:34.011Z,101957.33
2019-05-13T17:13:02.958Z,101950.99
2019-05-13T17:15:31.223Z,101957.89
2019-05-13T17:18:09.292Z,101959.23
2019-05-13T17:20:31.968Z,101953.59
2019-05-13T17:22:59.021Z,101962.94
2019-05-13T17:25:26.049Z,101959.23
2019-05-13T17:27:53.193Z,101962.49
2019-05-13T17:30:22.024Z,101956.11
2019-05-13T17:32:51.592Z,101960.87
2019-05-13T17:35:19.193Z,101962.17
2019-05-13T17:37:47.248Z,101957.06
2019-05-13T17:40:16.112Z,101958.84
2019-05-13T17:47:15.616Z,101962.64
2019-05-13T17:49:42.787Z,101960.68
2019-05-13T17:52:11.548Z,101959.55
2019-05-13T17:54:38.746Z,101970.09
2019-05-13T17:57:05.925Z,101970.27
2019-05-13T17:59:33.084Z,101968.31
2019-05-13T18:02:02.674Z,101973.09
2019-05-13T18:04:31.425Z,101963.06
2019-05-13T18:07:01.602Z,101963.61
2019-05-13T18:09:31.530Z,101953.69
2019-05-13T18:11:58.154Z,101955.87
2019-05-13T18:14:25.190Z,101958.00
2019-05-13T18:16:52.301Z,101963.72
2019-05-13T18:19:19.392Z,101963.30
2019-05-13T18:21:47.570Z,101968.48
2019-05-13T18:24:15.892Z,101963.28
2019-05-13T18:26:44.185Z,101968.30
2019-05-13T18:29:12.347Z,101968.00
2019-05-13T18:31:42.073Z,101963.10
2019-05-13T18:34:12.039Z,101973.55
2019-05-13T18:36:38.917Z,101971.12
2019-05-13T18:39:12.116Z,101966.84
2019-05-13T18:41:41.255Z,101964.41
2019-05-13T18:44:08.408Z,101966.01
2019-05-13T18:46:35.698Z,101962.94
2019-05-13T18:49:02.933Z,101972.56
2019-05-13T18:51:31.590Z,101966.42
2019-05-13T18:54:01.149Z,101968.67
2019-05-13T18:56:28.226Z,101970.66
2019-05-13T18:58:57.196Z,101978.71
2019-05-13T19:01:24.476Z,101977.92
2019-05-13T19:03:51.649Z,101970.05
2019-05-13T19:06:22.378Z,101971.59
2019-05-13T19:08:49.621Z,101980.34
2019-05-13T19:11:16.673Z,101985.00
2019-05-13T19:13:43.958Z,101978.17
2019-05-13T19:16:11.976Z,101990.30
2019-05-13T19:18:39.270Z,101978.59
2019-05-13T19:21:06.373Z,101980.02
2019-05-13T19:23:33.699Z,101982.30
2019-05-13T19:26:02.421Z,101982.44
2019-05-13T19:28:31.740Z,101978.59
2019-05-13T19:30:59.077Z,101976.37
2019-05-13T19:33:26.298Z,101982.75
2019-05-13T19:35:53.523Z,101982.34
2019-05-13T19:38:21.188Z,101988.47
2019-05-13T19:40:48.558Z,101995.46
2019-05-13T19:43:15.842Z,101990.26
2019-05-13T19:45:43.214Z,101992.75
2019-05-13T19:48:12.153Z,101985.14
2019-05-13T19:50:41.596Z,101990.95
2019-05-13T19:53:08.722Z,101983.09
2019-05-13T19:55:35.822Z,101982.98
2019-05-13T19:58:03.097Z,101988.30
2019-05-13T20:00:31.621Z,101985.81
2019-05-13T20:02:58.995Z,101986.19
2019-05-13T20:05:26.066Z,101989.10
2019-05-13T20:07:54.719Z,101984.59
2019-05-13T20:10:23.384Z,101990.99
2019-05-13T20:12:51.294Z,101983.72
2019-05-13T20:15:18.942Z,101983.08
2019-05-13T20:17:47.887Z,101991.27
2019-05-13T20:20:16.185Z,101990.14
2019-05-13T20:22:43.556Z,101987.95
2019-05-13T20:25:13.009Z,101982.73
2019-05-13T20:27:42.005Z,101984.55
2019-05-13T20:30:11.430Z,101993.98
2019-05-13T20:32:42.135Z,101988.41
2019-05-13T20:35:11.303Z,101984.00
2019-05-13T20:37:38.713Z,101989.30
2019-05-13T20:40:07.553Z,101988.27
2019-05-13T20:42:35.757Z,101988.94
2019-05-13T20:45:03.426Z,101994.02
2019-05-13T20:47:30.734Z,101990.39
2019-05-13T20:50:01.809Z,101983.66
2019-05-13T20:52:31.264Z,101993.48
2019-05-13T20:54:58.061Z,101992.45
2019-05-13T20:57:26.048Z,101987.31
2019-05-13T20:59:55.342Z,101985.55
2019-05-13T21:02:22.484Z,101990.40
2019-05-13T21:04:51.437Z,101987.59
2019-05-13T21:07:18.829Z,101989.44
2019-05-13T21:09:52.049Z,101990.30
2019-05-13T21:12:22.046Z,101988.53
2019-05-13T21:14:53.800Z,101988.12
2019-05-13T21:17:21.415Z,101990.63
2019-05-13T21:19:48.644Z,101990.73
2019-05-13T21:22:15.679Z,101993.73
2019-05-13T21:24:42.808Z,101986.02
2019-05-13T21:27:11.912Z,101984.75
2019-05-13T21:29:41.323Z,101977.27
2019-05-13T21:32:08.334Z,101978.45
2019-05-13T21:34:35.506Z,101981.48
2019-05-13T21:37:02.589Z,101982.60
2019-05-13T21:39:31.828Z,101983.48
2019-05-13T21:41:58.688Z,101984.09
2019-05-13T21:44:25.726Z,101988.49
2019-05-13T21:46:53.019Z,101990.92
2019-05-13T21:49:21.375Z,101991.36
2019-05-13T21:51:48.635Z,101993.38
2019-05-13T21:54:17.500Z,101994.00
2019-05-13T21:56:44.565Z,101992.44
2019-05-13T21:59:16.759Z,101996.63
2019-05-13T22:01:43.906Z,101994.09
2019-05-13T22:04:12.339Z,101991.59
2019-05-13T22:06:39.971Z,101997.42
2019-05-13T22:09:11.493Z,101990.70
2019-05-13T22:11:38.588Z,101992.78
2019-05-13T22:14:05.787Z,101984.27
2019-05-13T22:16:35.358Z,101988.18
2019-05-13T22:19:02.690Z,101989.67
2019-05-13T22:21:31.608Z,101983.36
2019-05-13T22:23:58.728Z,101986.11
2019-05-13T22:26:25.798Z,101988.67
2019-05-13T22:28:52.882Z,101987.92
2019-05-13T22:31:22.213Z,101983.35
2019-05-13T22:33:52.931Z,101981.92
2019-05-13T22:36:21.287Z,101979.88
2019-05-13T22:38:48.740Z,101972.70
2019-05-13T22:41:16.875Z,101979.48
2019-05-13T22:43:54.612Z,101978.47
2019-05-13T22:46:14.215Z,101971.30
2019-05-13T22:48:41.970Z,101978.22
2019-05-13T22:51:13.620Z,101975.54
2019-05-13T22:53:42.259Z,101977.48
2019-05-13T22:56:09.810Z,101978.22
2019-05-13T22:58:36.864Z,101984.38
2019-05-13T23:01:04.046Z,101989.61
2019-05-13T23:03:32.381Z,101982.99
2019-05-13T23:06:01.551Z,101974.20
2019-05-13T23:08:28.593Z,101981.77
2019-05-13T23:10:55.865Z,101979.85
2019-05-13T23:13:22.932Z,101974.52
2019-05-13T23:15:51.603Z,101978.48
2019-05-13T23:18:22.196Z,101979.64
2019-05-13T23:20:51.475Z,101974.05
2019-05-13T23:23:18.406Z,101967.84
2019-05-13T23:25:45.621Z,101967.71
2019-05-13T23:28:12.706Z,101973.22
2019-05-13T23:30:41.765Z,101973.78
2019-05-13T23:33:11.416Z,101967.06
2019-05-13T23:35:37.932Z,101962.59
2019-05-13T23:38:07.453Z,101954.84
2019-05-13T23:40:34.651Z,101957.19
2019-05-13T23:43:02.195Z,101954.02
2019-05-13T23:45:31.169Z,101947.77
2019-05-13T23:47:58.319Z,101943.52
2019-05-13T23:50:25.403Z,101946.96
2019-05-13T23:52:52.490Z,101943.21
2019-05-13T23:55:19.638Z,101942.78
2019-05-13T23:57:46.788Z,101936.69
